createdAt,value
2023-05-13T11:01:49.093Z,12.40
2023-05-13T11:03:21.409Z,11.80
2023-05-13T11:05:00.431Z,17.40
2023-05-13T11:06:41.159Z,21.00
2023-05-13T11:08:33.287Z,15.00
2023-05-13T11:10:23.615Z,13.80
2023-05-13T11:11:57.022Z,11.40
2023-05-13T11:13:38.411Z,20.20
2023-05-13T11:15:49.614Z,15.20
2023-05-13T11:17:21.932Z,15.40
2023-05-13T11:18:54.379Z,13.40
2023-05-13T11:20:26.451Z,11.00
2023-05-13T11:22:04.653Z,12.20
2023-05-13T11:24:06.587Z,11.40
2023-05-13T11:25:38.466Z,13.20
2023-05-13T11:27:17.747Z,15.80
2023-05-13T11:29:04.965Z,13.40
2023-05-13T11:30:36.959Z,12.00
2023-05-13T11:32:08.878Z,7.20
2023-05-13T11:34:09.818Z,16.60
2023-05-13T11:35:41.754Z,10.60
2023-05-13T11:37:13.687Z,9.40
2023-05-13T11:38:45.530Z,14.80
2023-05-13T11:40:26.640Z,9.60
2023-05-13T11:42:01.811Z,17.40
2023-05-13T11:43:34.795Z,15.00
2023-05-13T11:45:07.457Z,13.00
2023-05-13T11:46:39.396Z,13.40
2023-05-13T11:48:22.455Z,11.00
2023-05-13T11:49:54.415Z,12.80
2023-05-13T11:51:26.540Z,13.20
2023-05-13T11:53:01.198Z,12.00
2023-05-13T11:54:40.113Z,11.00
2023-05-13T11:56:12.999Z,11.00
2023-05-13T11:57:44.947Z,9.00
2023-05-13T11:59:16.865Z,9.60
2023-05-13T12:00:48.837Z,10.40
2023-05-13T12:02:41.700Z,8.80
2023-05-13T12:04:13.729Z,12.00
2023-05-13T12:05:45.631Z,9.00
2023-05-13T12:07:26.854Z,6.00
2023-05-13T12:09:05.874Z,10.40
2023-05-13T12:10:43.756Z,10.60
2023-05-13T12:12:16.677Z,11.20
2023-05-13T12:13:48.731Z,11.00
2023-05-13T12:15:21.672Z,11.40
2023-05-13T12:16:54.270Z,6.20
2023-05-13T12:18:26.701Z,9.80
2023-05-13T12:20:18.906Z,8.40
2023-05-13T12:21:52.020Z,9.40
2023-05-13T12:23:24.281Z,9.60
2023-05-13T12:25:01.216Z,9.80
2023-05-13T12:26:33.378Z,11.60
2023-05-13T12:28:20.721Z,9.60
2023-05-13T12:29:55.295Z,8.00
2023-05-13T12:31:27.586Z,9.20
2023-05-13T12:32:59.690Z,10.00
2023-05-13T12:34:32.701Z,8.40
2023-05-13T12:36:21.770Z,9.40
2023-05-13T12:38:03.280Z,10.40
2023-05-13T12:39:35.242Z,8.00
2023-05-13T12:41:13.549Z,10.20
2023-05-13T12:42:45.765Z,9.00
2023-05-13T12:44:18.101Z,9.60
2023-05-13T12:45:54.361Z,10.00
2023-05-13T12:47:26.291Z,10.80
2023-05-13T12:48:59.597Z,10.40
2023-05-13T12:50:31.823Z,12.00
2023-05-13T12:52:05.067Z,13.00
2023-05-13T12:53:36.977Z,9.40
2023-05-13T12:55:09.450Z,10.40
2023-05-13T12:56:41.447Z,16.60
2023-05-13T12:58:13.764Z,32.60
2023-05-13T12:59:46.085Z,45.60
2023-05-13T13:01:18.286Z,51.60
2023-05-13T13:02:50.486Z,49.00
2023-05-13T13:04:23.436Z,53.20
2023-05-13T13:05:55.684Z,58.40
2023-05-13T13:07:27.773Z,63.00
2023-05-13T13:08:59.997Z,58.80
2023-05-13T13:10:32.154Z,62.60
2023-05-13T13:12:06.974Z,60.00
2023-05-13T13:13:39.530Z,62.00
2023-05-13T13:15:12.125Z,62.20
2023-05-13T13:16:44.599Z,61.60
2023-05-13T13:18:16.647Z,63.50
2023-05-13T13:19:48.514Z,68.25
2023-05-13T13:21:20.620Z,78.75
2023-05-13T13:22:53.959Z,77.50
2023-05-13T13:24:25.908Z,81.50
2023-05-13T13:25:59.343Z,89.75
2023-05-13T13:27:31.620Z,76.50
2023-05-13T13:29:03.484Z,82.75
2023-05-13T13:30:35.509Z,86.50
2023-05-13T13:32:08.224Z,86.75
2023-05-13T13:33:40.405Z,86.75
2023-05-13T13:35:12.325Z,91.00
2023-05-13T13:36:44.307Z,90.25
2023-05-13T13:38:16.260Z,81.75
2023-05-13T13:39:48.236Z,80.25
2023-05-13T13:41:20.092Z,94.25
2023-05-13T13:42:51.996Z,93.00
2023-05-13T13:44:23.858Z,87.50
2023-05-13T13:45:56.002Z,93.00
2023-05-13T13:47:28.205Z,61.00
2023-05-13T13:49:02.170Z,85.50
2023-05-13T13:50:35.917Z,85.25
2023-05-13T13:52:08.510Z,83.00
2023-05-13T13:53:40.463Z,78.50
2023-05-13T13:55:12.404Z,80.75
2023-05-13T13:56:44.330Z,68.00
2023-05-13T13:58:16.394Z,73.25
2023-05-13T13:59:48.315Z,81.75
2023-05-13T14:01:20.652Z,97.75
2023-05-13T14:02:52.795Z,81.00
2023-05-13T14:04:27.881Z,83.75
2023-05-13T14:05:59.771Z,81.25
2023-05-13T14:07:31.782Z,73.25
2023-05-13T14:09:04.411Z,58.80
2023-05-13T14:10:36.889Z,56.00
2023-05-13T14:12:08.937Z,50.80
2023-05-13T14:13:40.846Z,47.20
2023-05-13T14:15:12.730Z,41.20
2023-05-13T14:16:44.820Z,42.60
2023-05-13T14:18:16.718Z,34.20
2023-05-13T14:19:51.949Z,32.60
2023-05-13T14:21:24.028Z,25.80
2023-05-13T14:22:56.439Z,31.60
2023-05-13T14:24:28.317Z,20.40
2023-05-13T14:26:00.514Z,22.00
2023-05-13T14:27:34.178Z,20.80
2023-05-13T14:29:06.284Z,19.00
2023-05-13T14:30:38.656Z,22.80
2023-05-13T14:32:11.072Z,15.80
2023-05-13T14:33:43.112Z,15.00
2023-05-13T14:35:15.112Z,16.20
2023-05-13T14:36:46.963Z,12.80
2023-05-13T14:38:19.188Z,14.40
2023-05-13T14:39:51.202Z,16.40
2023-05-13T14:41:24.416Z,8.80
2023-05-13T14:42:56.303Z,13.80
2023-05-13T14:44:28.224Z,12.20
2023-05-13T14:46:00.177Z,18.20
2023-05-13T14:47:32.642Z,11.40
2023-05-13T14:49:04.658Z,15.00
2023-05-13T14:50:36.821Z,28.00
2023-05-13T14:52:08.716Z,36.60
2023-05-13T14:53:42.102Z,53.60
2023-05-13T14:55:14.086Z,74.00
2023-05-13T14:56:46.178Z,73.00
2023-05-13T14:58:18.136Z,77.25
2023-05-13T14:59:50.211Z,71.25
2023-05-13T15:01:22.196Z,69.00
2023-05-13T15:02:54.465Z,67.75
2023-05-13T15:04:26.466Z,65.75
2023-05-13T15:05:58.406Z,69.00
2023-05-13T15:07:30.251Z,68.00
2023-05-13T15:09:02.253Z,56.75
2023-05-13T15:10:34.101Z,56.20
2023-05-13T15:12:06.876Z,56.60
2023-05-13T15:13:39.433Z,48.80
2023-05-13T15:15:11.734Z,45.60
2023-05-13T15:16:44.288Z,46.60
2023-05-13T15:18:16.234Z,46.60
2023-05-13T15:19:48.070Z,40.00
2023-05-13T15:21:19.981Z,38.80
2023-05-13T15:22:51.859Z,31.40
2023-05-13T15:24:24.186Z,22.80
2023-05-13T15:25:56.235Z,27.80
2023-05-13T15:27:28.317Z,30.80
2023-05-13T15:29:00.146Z,27.00
2023-05-13T15:30:32.099Z,37.60
2023-05-13T15:32:05.099Z,50.20
2023-05-13T15:33:37.412Z,48.20
2023-05-13T15:35:09.517Z,42.00
2023-05-13T15:36:41.514Z,41.60
2023-05-13T15:38:13.777Z,41.00
2023-05-13T15:39:45.772Z,41.80
2023-05-13T15:41:17.663Z,41.20
2023-05-13T15:42:49.675Z,43.80
2023-05-13T15:44:22.412Z,48.20
2023-05-13T15:45:55.127Z,38.40
2023-05-13T15:47:27.200Z,54.00
2023-05-13T15:48:59.768Z,48.60
2023-05-13T15:50:32.087Z,58.80
2023-05-13T15:52:07.167Z,55.40
2023-05-13T15:53:39.287Z,57.20
2023-05-13T15:55:12.081Z,53.60
2023-05-13T15:56:43.978Z,53.80
2023-05-13T15:58:16.205Z,69.25
2023-05-13T15:59:48.238Z,67.00
2023-05-13T16:01:20.239Z,58.40
2023-05-13T16:02:52.259Z,57.60
2023-05-13T16:04:24.233Z,53.80
2023-05-13T16:05:56.135Z,41.80
2023-05-13T16:07:28.136Z,48.20
2023-05-13T16:09:03.131Z,46.20
2023-05-13T16:10:35.904Z,53.20
2023-05-13T16:12:08.033Z,61.20
2023-05-13T16:13:40.502Z,59.75
2023-05-13T16:15:12.403Z,63.50
2023-05-13T16:16:44.783Z,61.50
2023-05-13T16:18:16.845Z,64.00
2023-05-13T16:19:49.734Z,64.50
2023-05-13T16:21:21.770Z,62.50
2023-05-13T16:22:53.651Z,63.75
2023-05-13T16:24:25.586Z,60.25
2023-05-13T16:25:57.825Z,66.50
2023-05-13T16:27:29.815Z,60.50
2023-05-13T16:29:01.679Z,63.25
2023-05-13T16:30:33.626Z,64.00
2023-05-13T16:32:05.917Z,62.25
2023-05-13T16:33:37.923Z,59.80
2023-05-13T16:35:11.927Z,62.25
2023-05-13T16:36:43.774Z,64.25
2023-05-13T16:38:15.833Z,58.00
2023-05-13T16:39:47.722Z,61.75
2023-05-13T16:41:19.716Z,62.00
2023-05-13T16:42:51.827Z,62.25
2023-05-13T16:44:23.838Z,63.75
2023-05-13T16:45:55.985Z,69.00
2023-05-13T16:47:28.261Z,61.50
2023-05-13T16:49:00.454Z,63.75
2023-05-13T16:50:32.536Z,63.00
2023-05-13T16:52:04.957Z,56.75
2023-05-13T16:53:36.793Z,63.75
2023-05-13T16:55:09.282Z,65.50
2023-05-13T16:56:41.510Z,66.50
2023-05-13T16:58:13.372Z,64.75
2023-05-13T16:59:45.318Z,67.75
2023-05-13T17:01:17.340Z,69.25
2023-05-13T17:02:49.451Z,78.75
2023-05-13T17:04:21.599Z,72.75
2023-05-13T17:05:53.538Z,76.50
2023-05-13T17:07:25.517Z,69.75
2023-05-13T17:08:57.558Z,63.75
2023-05-13T17:10:29.620Z,68.50
2023-05-13T17:12:01.478Z,64.50
2023-05-13T17:13:33.457Z,62.60
2023-05-13T17:15:05.887Z,65.20
2023-05-13T17:16:38.913Z,60.20
2023-05-13T17:18:11.190Z,59.20
2023-05-13T17:19:43.106Z,61.20
2023-05-13T17:21:15.224Z,66.75
2023-05-13T17:22:47.722Z,68.50
2023-05-13T17:24:22.091Z,76.50
2023-05-13T17:25:53.994Z,80.75
2023-05-13T17:27:26.156Z,84.25
2023-05-13T17:28:58.005Z,88.00
2023-05-13T17:30:29.842Z,83.00
2023-05-13T17:32:01.691Z,102.60
2023-05-13T17:33:34.154Z,96.80
2023-05-13T17:35:06.914Z,77.00
2023-05-13T17:36:38.889Z,68.75
2023-05-13T17:38:11.034Z,75.75
2023-05-13T17:39:43.021Z,60.75
2023-05-13T17:41:14.821Z,54.20
2023-05-13T17:42:46.808Z,51.80
2023-05-13T17:44:20.084Z,51.20
2023-05-13T17:45:52.168Z,51.00
2023-05-13T17:47:24.157Z,52.60
2023-05-13T17:48:56.228Z,51.20
2023-05-13T17:50:30.891Z,56.20
2023-05-13T17:52:02.982Z,56.00
2023-05-13T17:53:35.282Z,56.60
2023-05-13T17:55:07.772Z,61.40
2023-05-13T17:56:39.604Z,54.00
2023-05-13T17:58:11.697Z,61.00
2023-05-13T17:59:43.835Z,55.00
2023-05-13T18:01:15.882Z,60.00
2023-05-13T18:02:47.875Z,51.00
2023-05-13T18:04:20.077Z,61.40
2023-05-13T18:05:52.123Z,64.75
2023-05-13T18:07:24.317Z,64.75
2023-05-13T18:08:56.303Z,65.50
2023-05-13T18:10:28.990Z,65.50
2023-05-13T18:12:00.958Z,60.75
2023-05-13T18:13:32.963Z,66.00
2023-05-13T18:15:06.012Z,65.25
2023-05-13T18:16:38.264Z,63.50
2023-05-13T18:18:10.390Z,63.00
2023-05-13T18:19:42.441Z,60.50
2023-05-13T18:21:14.303Z,63.75
2023-05-13T18:22:46.330Z,64.25
2023-05-13T18:24:18.269Z,63.50
2023-05-13T18:25:55.840Z,72.75
2023-05-13T18:27:28.348Z,64.50
2023-05-13T18:29:00.327Z,69.75
2023-05-13T18:30:32.161Z,66.25
2023-05-13T18:32:05.030Z,67.50
2023-05-13T18:33:36.866Z,64.50
2023-05-13T18:35:08.998Z,67.50
2023-05-13T18:36:40.956Z,73.00
2023-05-13T18:38:12.872Z,71.75
2023-05-13T18:39:45.989Z,69.75
2023-05-13T18:41:18.018Z,69.50
2023-05-13T18:42:49.911Z,64.00
2023-05-13T18:44:21.861Z,68.75
2023-05-13T18:45:55.545Z,71.75
2023-05-13T18:47:29.156Z,73.50
2023-05-13T18:49:01.241Z,71.75
2023-05-13T18:50:33.217Z,75.75
2023-05-13T18:52:05.699Z,73.50
2023-05-13T18:53:37.729Z,69.25
2023-05-13T18:55:09.780Z,74.00
2023-05-13T18:56:42.268Z,75.00
2023-05-13T18:58:14.118Z,75.00
2023-05-13T18:59:46.227Z,74.75
2023-05-13T19:01:18.358Z,74.50
2023-05-13T19:02:50.647Z,81.75
2023-05-13T19:04:22.784Z,79.75
2023-05-13T19:05:55.104Z,89.00
2023-05-13T19:07:27.354Z,78.00
2023-05-13T19:08:59.280Z,64.00
2023-05-13T19:10:34.626Z,54.40
2023-05-13T19:12:09.299Z,57.00
2023-05-13T19:13:47.239Z,57.00
2023-05-13T19:15:21.404Z,71.50
2023-05-13T19:16:53.413Z,64.50
2023-05-13T19:18:25.655Z,64.00
2023-05-13T19:20:00.326Z,61.25
2023-05-13T19:21:33.393Z,55.40
2023-05-13T19:23:05.601Z,62.20
2023-05-13T19:24:37.680Z,62.00
2023-05-13T19:26:09.791Z,60.75
2023-05-13T19:27:42.207Z,61.75
2023-05-13T19:29:14.087Z,61.75
2023-05-13T19:30:46.276Z,65.00
2023-05-13T19:32:18.473Z,62.00
2023-05-13T19:33:50.433Z,67.00
2023-05-13T19:35:23.612Z,65.50
2023-05-13T19:36:55.974Z,67.00
2023-05-13T19:38:27.940Z,69.75
2023-05-13T19:39:59.946Z,75.75
2023-05-13T19:41:34.596Z,70.00
2023-05-13T19:43:06.795Z,72.75
2023-05-13T19:44:38.650Z,72.00
2023-05-13T19:46:11.122Z,73.25
2023-05-13T19:47:43.406Z,77.00
2023-05-13T19:49:15.896Z,75.25
2023-05-13T19:50:47.740Z,78.25
2023-05-13T19:52:19.611Z,82.25
2023-05-13T19:53:51.580Z,84.00
2023-05-13T19:55:23.600Z,78.50
2023-05-13T19:56:56.257Z,79.50
2023-05-13T19:58:28.571Z,80.00
2023-05-13T20:00:00.461Z,77.50
2023-05-13T20:01:32.579Z,83.50
2023-05-13T20:03:04.596Z,80.75
2023-05-13T20:04:37.130Z,81.25
2023-05-13T20:06:09.227Z,80.75
2023-05-13T20:07:41.372Z,77.50
2023-05-13T20:09:13.268Z,79.75
2023-05-13T20:10:45.087Z,78.75
2023-05-13T20:12:16.966Z,72.25
2023-05-13T20:13:48.952Z,79.75
2023-05-13T20:15:20.877Z,83.25
2023-05-13T20:16:52.939Z,77.00
2023-05-13T20:18:25.091Z,77.25
2023-05-13T20:19:57.539Z,78.25
2023-05-13T20:21:29.596Z,77.75
2023-05-13T20:23:01.509Z,71.75
2023-05-13T20:24:33.344Z,87.50
2023-05-13T20:26:05.275Z,81.00
2023-05-13T20:27:37.208Z,80.25
2023-05-13T20:29:09.200Z,77.75
2023-05-13T20:30:44.540Z,78.75
2023-05-13T20:32:24.741Z,79.75
2023-05-13T20:33:57.664Z,77.00
2023-05-13T20:35:29.623Z,78.50
2023-05-13T20:37:01.544Z,79.75
2023-05-13T20:38:33.501Z,81.25
2023-05-13T20:40:06.251Z,73.75
2023-05-13T20:41:38.144Z,78.50
2023-05-13T20:43:10.199Z,83.75
2023-05-13T20:44:42.400Z,90.75
2023-05-13T20:46:17.092Z,95.50
2023-05-13T20:47:49.147Z,88.50
2023-05-13T20:49:21.623Z,91.00
2023-05-13T20:51:02.333Z,97.00
2023-05-13T20:52:34.338Z,98.00
2023-05-13T20:54:10.591Z,105.60
2023-05-13T20:55:42.494Z,105.00
2023-05-13T20:57:14.390Z,85.25
2023-05-13T20:58:46.504Z,93.75
2023-05-13T21:00:18.631Z,88.50
2023-05-13T21:01:50.766Z,102.20
2023-05-13T21:03:23.134Z,92.50
2023-05-13T21:04:55.129Z,94.25
2023-05-13T21:06:27.524Z,96.50
2023-05-13T21:07:59.415Z,82.75
2023-05-13T21:09:31.399Z,89.00
2023-05-13T21:11:04.095Z,79.25
2023-05-13T21:12:36.161Z,92.00
2023-05-13T21:14:07.981Z,100.20
2023-05-13T21:15:39.921Z,99.75
2023-05-13T21:17:11.829Z,97.80
2023-05-13T21:18:43.891Z,77.50
2023-05-13T21:20:16.360Z,94.75
2023-05-13T21:21:48.344Z,90.75
2023-05-13T21:23:20.648Z,97.00
2023-05-13T21:24:52.670Z,84.75
2023-05-13T21:26:25.104Z,92.60
2023-05-13T21:27:57.014Z,83.50
2023-05-13T21:29:30.410Z,95.20
2023-05-13T21:31:02.571Z,105.40
2023-05-13T21:32:34.723Z,104.80
2023-05-13T21:34:06.876Z,87.00
2023-05-13T21:35:38.715Z,105.00
2023-05-13T21:37:10.728Z,106.40
2023-05-13T21:38:42.707Z,100.00
2023-05-13T21:40:14.954Z,102.20
2023-05-13T21:41:47.850Z,100.00
2023-05-13T21:43:19.925Z,102.40
2023-05-13T21:44:51.848Z,100.40
2023-05-13T21:46:23.852Z,100.60
2023-05-13T21:47:55.766Z,100.60
2023-05-13T21:49:27.924Z,96.00
2023-05-13T21:50:59.851Z,100.40
2023-05-13T21:52:31.824Z,101.00
2023-05-13T21:54:03.806Z,97.80
2023-05-13T21:55:35.778Z,102.00
2023-05-13T21:57:08.088Z,94.20
2023-05-13T21:58:40.222Z,120.25
2023-05-13T22:00:15.356Z,106.25
2023-05-13T22:02:06.139Z,126.50
2023-05-13T22:03:38.200Z,130.00
2023-05-13T22:05:10.210Z,123.25
2023-05-13T22:06:42.262Z,125.25
2023-05-13T22:08:14.225Z,120.00
2023-05-13T22:09:47.016Z,110.00
2023-05-13T22:11:21.111Z,119.25
2023-05-13T22:12:52.956Z,118.00
2023-05-13T22:14:24.880Z,113.50
2023-05-13T22:15:56.788Z,118.75
2023-05-13T22:17:29.271Z,118.75
2023-05-13T22:19:01.533Z,113.75
2023-05-13T22:20:33.601Z,118.75
2023-05-13T22:22:05.683Z,127.75
2023-05-13T22:23:37.745Z,124.75
2023-05-13T22:25:09.751Z,127.75
2023-05-13T22:26:43.812Z,135.75
2023-05-13T22:28:15.739Z,121.25
2023-05-13T22:29:47.688Z,136.50
2023-05-13T22:31:19.858Z,124.00
2023-05-13T22:32:51.975Z,135.25
2023-05-13T22:34:24.244Z,119.25
